Time;durP1;ratioP1;P1;durP2;ratioP2;P2;SDS_P1;SDS_P2;PMS_P1;PMS_P2;Temp;Humidity;BMP_temperature;BMP_pressure;BME280_temperature;BME280_humidity;BME280_pressure;Samples;Min_cycle;Max_cycle;Signal;HPM_P1;HPM_P2
2022/12/02 00:01:26;;;;;;;;;35.00;29.00;;;;;7.30;66.25;101945.44;4998208;28;46153;-70
2022/12/02 00:03:52;;;;;;;;;45.00;35.33;;;;;7.35;67.29;101980.38;4998455;28;45489;-69
2022/12/02 00:06:25;;;;;;;;;36.67;32.33;;;;;6.34;67.12;101850.75;4998378;28;45345;-70
2022/12/02 00:08:53;;;;;;;;;50.00;38.33;;;;;6.04;67.80;101797.94;4998381;28;45496;-70
2022/12/02 00:11:39;;;;;;;;;24.67;21.67;;;;;7.14;68.28;101976.38;4997810;28;45330;-68
2022/12/02 00:14:15;;;;;;;;;51.00;40.67;;;;;6.99;68.54;101957.00;4979980;28;45366;-69
2022/12/02 00:16:40;;;;;;;;;40.67;34.67;;;;;7.03;68.43;101939.19;4997820;28;45307;-69
2022/12/02 00:19:05;;;;;;;;;42.33;36.33;;;;;7.03;67.96;101947.97;5010609;28;45541;-69
2022/12/02 00:21:31;;;;;;;;;38.67;32.00;;;;;6.86;68.05;101908.47;5017585;28;45574;-71
2022/12/02 00:23:56;;;;;;;;;48.00;39.33;;;;;5.48;67.88;101668.31;5017387;28;45502;-70
2022/12/02 00:26:21;;;;;;;;;43.00;38.33;;;;;6.93;68.57;101930.94;5017389;28;45320;-71
2022/12/02 00:28:47;;;;;;;;;57.33;42.00;;;;;7.13;68.32;101966.75;5017726;28;45369;-70
2022/12/02 00:31:12;;;;;;;;;43.33;36.00;;;;;7.13;68.66;101970.25;5017671;28;46608;-70
2022/12/02 00:33:37;;;;;;;;;53.00;43.00;;;;;7.07;68.90;101930.09;5017239;28;45475;-69
2022/12/02 00:36:03;;;;;;;;;48.33;41.00;;;;;6.99;68.86;101930.56;5016419;28;45495;-70
2022/12/02 00:38:28;;;;;;;;;50.33;39.33;;;;;7.18;68.76;101951.44;5018006;28;45325;-69
2022/12/02 00:40:53;;;;;;;;;46.67;36.33;;;;;7.26;68.62;101949.22;4999214;28;46775;-70
2022/12/02 00:48:46;;;;;;;;;45.33;37.67;;;;;5.54;69.47;101680.31;5006310;28;45504;-70
2022/12/02 00:51:11;;;;;;;;;48.67;38.00;;;;;6.70;69.46;101876.78;4997409;28;45505;-71
2022/12/02 00:53:36;;;;;;;;;52.67;42.33;;;;;7.23;69.38;101949.41;4997374;28;45307;-69
2022/12/02 00:56:02;;;;;;;;;41.67;36.00;;;;;4.53;68.32;101512.13;4997396;28;45278;-68
2022/12/02 00:58:27;;;;;;;;;54.33;43.67;;;;;7.16;69.15;101924.25;4997645;28;45357;-69
2022/12/02 01:00:53;;;;;;;;;43.67;36.00;;;;;7.05;69.22;101910.84;4997120;28;46419;-70
2022/12/02 01:03:18;;;;;;;;;49.00;40.33;;;;;4.34;69.36;101481.66;4997298;28;45723;-70
2022/12/02 01:05:43;;;;;;;;;52.00;39.67;;;;;6.63;69.77;101851.69;4979948;28;45394;-70
2022/12/02 01:08:09;;;;;;;;;52.67;42.33;;;;;7.13;69.21;101933.22;4997446;28;45334;-69
2022/12/02 01:10:34;;;;;;;;;51.67;40.67;;;;;6.59;69.73;101844.84;4997086;28;46053;-69
2022/12/02 01:13:00;;;;;;;;;48.33;38.67;;;;;6.35;69.20;101789.91;4996868;28;45401;-70
2022/12/02 01:15:25;;;;;;;;;46.33;38.00;;;;;7.24;68.88;101940.53;4996913;28;48638;-71
2022/12/02 01:17:50;;;;;;;;;45.67;37.33;;;;;7.15;68.47;101920.75;4999877;28;45330;-70
2022/12/02 01:20:16;;;;;;;;;45.33;36.67;;;;;7.11;69.58;101934.25;4997313;28;47319;-69
2022/12/02 01:22:41;;;;;;;;;47.67;39.00;;;;;7.09;69.84;101920.28;5004563;28;45298;-68
2022/12/02 01:25:07;;;;;;;;;51.33;41.33;;;;;7.15;69.62;101914.63;4997038;28;45242;-69
2022/12/02 01:27:32;;;;;;;;;60.33;45.67;;;;;7.17;69.37;101926.81;4997005;28;45290;-72
2022/12/02 01:29:58;;;;;;;;;49.67;39.33;;;;;7.03;68.55;101881.84;4996437;28;45286;-69
2022/12/02 01:32:23;;;;;;;;;51.67;43.00;;;;;7.25;68.77;101913.13;4996909;28;45369;-69
2022/12/02 01:34:49;;;;;;;;;49.33;39.00;;;;;6.98;68.83;101876.81;4995598;28;45417;-69
2022/12/02 01:37:14;;;;;;;;;31.33;24.33;;;;;6.53;69.41;101802.97;4997214;28;45230;-70
2022/12/02 01:39:40;;;;;;;;;49.33;36.00;;;;;6.74;68.99;101841.31;4978749;28;48582;-69
2022/12/02 01:42:05;;;;;;;;;49.67;40.00;;;;;6.57;68.82;101838.81;4996743;28;45207;-71
2022/12/02 01:44:31;;;;;;;;;50.33;40.00;;;;;7.26;68.54;101925.41;4997963;28;45350;-68
2022/12/02 01:46:57;;;;;;;;;45.00;38.00;;;;;7.07;68.95;101908.97;5000263;28;45286;-68
2022/12/02 01:49:23;;;;;;;;;51.67;42.67;;;;;6.83;68.70;101856.63;5016034;28;45651;-71
2022/12/02 01:51:48;;;;;;;;;43.00;36.00;;;;;6.72;68.83;101836.13;5019885;28;45522;-69
2022/12/02 01:54:14;;;;;;;;;52.33;39.00;;;;;7.31;68.66;101913.59;5002109;28;45564;-70
2022/12/02 01:56:40;;;;;;;;;50.33;41.33;;;;;7.11;68.68;101881.38;5019111;28;45741;-68
2022/12/02 01:59:09;;;;;;;;;42.33;35.00;;;;;7.46;68.06;101935.63;5019679;28;45459;-69
2022/12/02 02:01:34;;;;;;;;;44.00;36.00;;;;;7.50;68.17;101926.53;5019747;28;45555;-68
2022/12/02 02:04:01;;;;;;;;;52.33;41.00;;;;;7.51;68.62;101932.69;5020666;28;45500;-68
2022/12/02 02:06:30;;;;;;;;;54.00;39.67;;;;;7.52;68.11;101943.16;5020338;28;45683;-70
2022/12/02 02:08:56;;;;;;;;;52.00;40.67;;;;;7.24;67.90;101880.53;5019531;28;45859;-68
2022/12/02 02:11:23;;;;;;;;;52.33;39.00;;;;;7.53;68.20;101931.63;5019368;28;45316;-69
2022/12/02 02:13:49;;;;;;;;;54.67;42.67;;;;;7.44;67.92;101921.63;5017822;28;45225;-69
2022/12/02 02:16:14;;;;;;;;;48.33;39.00;;;;;7.55;68.15;101947.41;5018849;28;45307;-68
2022/12/02 02:18:40;;;;;;;;;52.33;39.67;;;;;7.54;68.16;101941.28;4987334;28;48243;-68
2022/12/02 02:21:09;;;;;;;;;50.00;39.00;;;;;7.33;67.93;101897.63;4998612;28;45460;-68
2022/12/02 02:23:35;;;;;;;;;46.67;38.00;;;;;7.34;67.74;101867.56;5000310;28;45425;-69
2022/12/02 02:26:02;;;;;;;;;49.33;40.00;;;;;7.31;67.62;101862.47;5017043;28;45528;-68
2022/12/02 02:28:28;;;;;;;;;43.67;36.33;;;;;7.12;67.48;101840.75;5017983;28;46321;-69
2022/12/02 02:30:56;;;;;;;;;56.00;43.67;;;;;7.13;67.78;101834.53;5006538;28;45522;-69
2022/12/02 02:33:23;;;;;;;;;55.33;43.00;;;;;7.56;67.62;101904.97;4980599;28;45295;-70
2022/12/02 02:35:49;;;;;;;;;48.33;39.00;;;;;7.28;67.05;101863.53;4998413;28;45561;-69
2022/12/02 02:38:20;;;;;;;;;55.00;44.33;;;;;7.70;67.33;101903.25;4996682;28;46743;-67
2022/12/02 02:40:45;;;;;;;;;47.00;40.33;;;;;7.59;67.22;101899.47;4998054;28;45258;-69
2022/12/02 02:43:11;;;;;;;;;47.67;38.67;;;;;7.51;67.54;101885.91;4997985;28;45495;-69
2022/12/02 02:45:40;;;;;;;;;54.67;42.33;;;;;7.54;67.08;101893.63;4998559;28;45345;-68
2022/12/02 02:48:08;;;;;;;;;46.67;39.00;;;;;6.89;67.46;101784.88;4999422;28;46414;-69
2022/12/02 02:50:35;;;;;;;;;53.33;43.33;;;;;7.05;67.38;101791.88;5000261;28;45378;-70
2022/12/02 02:53:01;;;;;;;;;55.00;42.67;;;;;7.58;66.98;101879.25;4999938;28;45504;-69
2022/12/02 02:55:28;;;;;;;;;50.33;40.67;;;;;7.59;67.21;101883.59;5017768;28;45344;-68
2022/12/02 02:57:54;;;;;;;;;56.33;41.67;;;;;7.29;66.66;101843.22;5016084;28;48461;-68
2022/12/02 03:00:21;;;;;;;;;49.00;39.00;;;;;7.25;67.08;101844.34;4999732;28;45376;-70
2022/12/02 03:02:53;;;;;;;;;47.33;36.00;;;;;7.27;66.88;101839.81;5017117;28;45377;-70
2022/12/02 03:05:20;;;;;;;;;49.00;39.67;;;;;7.60;66.44;101874.72;5017409;28;45386;-69
2022/12/02 03:07:46;;;;;;;;;47.67;39.33;;;;;7.63;66.51;101863.97;5016471;28;46197;-69
2022/12/02 03:10:12;;;;;;;;;51.00;39.00;;;;;7.43;66.21;101840.56;5017325;28;45240;-69
2022/12/02 03:12:38;;;;;;;;;50.00;37.00;;;;;7.54;66.71;101880.41;4977530;28;1147199;-69
2022/12/02 03:15:05;;;;;;;;;45.67;38.00;;;;;7.31;66.93;101846.59;5018981;28;45251;-69
2022/12/02 03:17:30;;;;;;;;;52.33;40.33;;;;;7.49;66.88;101871.91;5016862;28;47845;-69
2022/12/02 03:19:56;;;;;;;;;53.00;40.33;;;;;6.30;66.59;101662.56;5018497;28;45518;-68
2022/12/02 03:22:22;;;;;;;;;46.33;36.33;;;;;6.53;66.75;101721.06;5001857;28;45312;-69
2022/12/02 03:24:48;;;;;;;;;51.33;40.67;;;;;7.00;67.46;101811.47;5018732;28;45309;-69
2022/12/02 03:27:14;;;;;;;;;53.00;40.00;;;;;7.28;67.77;101879.41;5018447;28;46204;-69
2022/12/02 03:29:41;;;;;;;;;50.33;39.00;;;;;6.39;67.07;101713.97;5016950;28;45388;-68
2022/12/02 03:32:09;;;;;;;;;54.67;41.00;;;;;7.26;67.44;101864.56;5000014;28;45604;-69
2022/12/02 03:34:35;;;;;;;;;42.00;33.33;;;;;6.78;67.58;101795.25;4997359;28;45297;-68
2022/12/02 03:37:02;;;;;;;;;51.00;40.00;;;;;7.31;67.55;101857.19;5015108;28;46585;-69
2022/12/02 03:39:30;;;;;;;;;49.67;39.33;;;;;7.28;67.42;101865.31;5017969;28;45349;-69
2022/12/02 03:41:56;;;;;;;;;50.33;38.67;;;;;7.25;67.23;101831.13;5000483;28;45575;-67
2022/12/02 03:44:21;;;;;;;;;52.33;41.33;;;;;7.38;67.06;101863.78;5016960;28;45203;-69
2022/12/02 03:46:47;;;;;;;;;51.67;41.00;;;;;7.41;66.98;101837.16;5017765;28;46985;-70
2022/12/02 03:49:15;;;;;;;;;56.67;40.00;;;;;7.35;66.80;101848.13;5018032;28;45556;-69
2022/12/02 03:51:40;;;;;;;;;49.67;40.00;;;;;7.12;67.15;101801.09;5018405;28;45350;-69
2022/12/02 03:54:06;;;;;;;;;38.00;34.67;;;;;7.42;66.97;101843.31;5018442;28;45246;-70
2022/12/02 03:56:39;;;;;;;;;45.33;37.00;;;;;7.18;66.77;101804.19;5017840;28;45580;-69
2022/12/02 03:59:05;;;;;;;;;36.67;35.67;;;;;7.29;66.75;101827.34;5017058;28;45599;-69
2022/12/02 04:01:31;;;;;;;;;51.67;39.67;;;;;7.43;67.36;101835.28;5005273;28;45253;-69
2022/12/02 04:03:56;;;;;;;;;54.67;43.67;;;;;7.12;67.31;101832.84;4990863;28;46537;-68
2022/12/02 04:06:22;;;;;;;;;55.00;43.33;;;;;7.26;66.93;101832.84;5016168;28;47361;-69
2022/12/02 04:08:47;;;;;;;;;56.33;43.00;;;;;7.25;66.88;101852.28;5017233;28;45625;-68
2022/12/02 04:11:12;;;;;;;;;53.00;40.67;;;;;7.25;67.35;101841.72;5017738;28;45459;-70
2022/12/02 04:13:38;;;;;;;;;50.00;40.67;;;;;7.18;66.65;101824.50;5017756;28;45476;-68
2022/12/02 04:16:04;;;;;;;;;42.67;37.00;;;;;7.26;66.50;101828.38;5017580;28;45944;-70
2022/12/02 04:18:29;;;;;;;;;52.67;40.00;;;;;7.11;67.02;101783.53;4999636;28;45502;-69
2022/12/02 04:20:55;;;;;;;;;55.00;42.67;;;;;7.08;66.97;101784.59;5011674;28;45562;-67
2022/12/02 04:23:20;;;;;;;;;59.00;43.00;;;;;7.07;66.87;101795.25;4998133;28;45504;-67
2022/12/02 04:25:45;;;;;;;;;58.67;40.00;;;;;7.00;66.85;101763.88;5012184;28;45608;-70
2022/12/02 04:28:11;;;;;;;;;48.33;39.67;;;;;7.19;67.12;101803.25;5015808;28;45424;-70
2022/12/02 04:30:36;;;;;;;;;42.67;37.33;;;;;6.91;66.70;101751.25;5016773;28;60683;-69
2022/12/02 04:33:02;;;;;;;;;42.67;35.33;;;;;6.67;67.12;101732.50;4999071;28;45265;-67
2022/12/02 04:35:27;;;;;;;;;35.67;29.00;;;;;7.12;67.74;101801.94;5016259;28;46706;-69
2022/12/02 04:37:54;;;;;;;;;47.33;40.00;;;;;7.17;67.37;101812.22;5017095;28;45231;-69
2022/12/02 04:40:19;;;;;;;;;47.00;39.00;;;;;6.46;67.15;101693.34;5013362;28;45495;-68
2022/12/02 04:42:45;;;;;;;;;50.67;42.00;;;;;6.90;67.80;101786.56;4997671;28;45533;-69
2022/12/02 04:45:11;;;;;;;;;54.00;37.67;;;;;6.50;67.72;101721.25;4995917;28;47573;-68
2022/12/02 04:47:36;;;;;;;;;54.00;41.33;;;;;6.48;67.68;101717.88;4997285;28;45694;-68
2022/12/02 04:50:03;;;;;;;;;51.67;40.00;;;;;6.84;67.79;101779.03;4996162;28;45716;-72
2022/12/02 04:52:28;;;;;;;;;51.67;40.67;;;;;7.16;68.00;101807.88;4997328;28;45437;-69
2022/12/02 04:54:54;;;;;;;;;53.67;38.67;;;;;6.67;67.10;101718.44;4998451;28;46490;-69
2022/12/02 04:57:19;;;;;;;;;57.67;42.33;;;;;5.70;67.41;101566.81;4997223;28;45263;-68
2022/12/02 04:59:44;;;;;;;;;48.00;40.00;;;;;7.20;67.47;101806.75;4979561;28;45329;-69
2022/12/02 05:02:09;;;;;;;;;54.33;42.00;;;;;7.21;67.82;101800.53;4979634;28;45517;-69
2022/12/02 05:04:35;;;;;;;;;56.00;42.33;;;;;7.29;67.57;101798.25;5000321;28;45735;-70
2022/12/02 05:07:00;;;;;;;;;51.33;40.00;;;;;7.26;67.71;101794.00;4996950;28;45285;-67
2022/12/02 05:09:26;;;;;;;;;45.00;37.33;;;;;7.29;67.31;101791.16;4997420;28;45377;-68
2022/12/02 05:11:51;;;;;;;;;53.67;40.67;;;;;6.94;67.51;101737.84;4997194;28;45524;-69
2022/12/02 05:14:16;;;;;;;;;56.00;44.00;;;;;7.22;67.56;101799.59;4997081;28;46620;-68
2022/12/02 05:16:42;;;;;;;;;56.75;45.25;;;;;7.10;67.44;101805.63;4996746;28;49452;-70
2022/12/02 05:19:07;;;;;;;;;60.67;44.67;;;;;6.18;68.08;101636.91;4997154;28;45795;-69
2022/12/02 05:21:32;;;;;;;;;50.67;40.33;;;;;6.99;67.90;101770.13;5012552;28;46523;-69
2022/12/02 05:23:58;;;;;;;;;54.67;44.67;;;;;6.99;67.75;101766.63;5001969;28;55496;-70
2022/12/02 05:26:23;;;;;;;;;61.00;46.67;;;;;4.48;67.58;101342.19;5002519;28;46213;-68
2022/12/02 05:28:48;;;;;;;;;54.33;42.33;;;;;5.99;67.65;101583.53;5020183;28;46331;-70
2022/12/02 05:31:14;;;;;;;;;51.00;42.00;;;;;7.20;67.93;101783.78;5020369;28;45297;-70
2022/12/02 05:33:39;;;;;;;;;54.67;42.67;;;;;6.09;67.57;101629.56;4993988;28;47703;-69
2022/12/02 05:36:04;;;;;;;;;55.00;43.67;;;;;7.20;67.34;101775.00;5000125;28;45310;-69
2022/12/02 05:38:30;;;;;;;;;51.67;40.00;;;;;6.85;67.20;101705.88;5000671;28;45180;-69
2022/12/02 05:40:55;;;;;;;;;51.00;39.00;;;;;7.32;67.24;101779.53;4999161;28;45364;-69
2022/12/02 05:43:24;;;;;;;;;57.00;43.00;;;;;6.74;67.80;101666.88;5000308;28;45777;-69
2022/12/02 05:45:50;;;;;;;;;55.33;41.00;;;;;7.29;67.47;101758.56;5000022;28;45503;-70
2022/12/02 05:48:17;;;;;;;;;51.33;40.00;;;;;7.20;67.79;101761.78;4999832;28;45376;-70
2022/12/02 05:50:44;;;;;;;;;52.67;43.33;;;;;7.12;67.03;101724.41;5000236;28;45247;-68
2022/12/02 05:53:22;;;;;;;;;57.67;45.00;;;;;6.19;67.37;101591.06;4999571;28;45646;-70
2022/12/02 05:55:49;;;;;;;;;43.33;32.33;;;;;5.86;67.76;101535.94;4998477;28;45418;-69
2022/12/02 05:58:16;;;;;;;;;57.33;45.33;;;;;7.19;67.63;101752.16;4999990;28;45475;-68
2022/12/02 06:00:42;;;;;;;;;57.00;45.00;;;;;7.32;66.83;101771.59;4999877;28;45211;-69
2022/12/02 06:03:16;;;;;;;;;58.00;47.00;;;;;7.14;67.40;101743.66;5004642;28;45590;-71
2022/12/02 06:05:42;;;;;;;;;59.00;47.00;;;;;7.07;68.25;101752.94;5009073;28;45239;-71
2022/12/02 06:08:32;;;;;;;;;59.67;47.00;;;;;6.96;68.39;101741.25;5000045;28;45218;-69
2022/12/02 06:11:04;;;;;;;;;58.75;43.50;;;;;7.06;67.93;101745.97;4985411;28;45579;-68
2022/12/02 06:13:37;;;;;;;;;62.50;47.25;;;;;7.05;68.20;101744.25;4999882;28;45682;-71
2022/12/02 06:16:06;;;;;;;;;47.75;37.00;;;;;6.86;68.13;101691.69;4998088;28;45342;-69
2022/12/02 06:18:33;;;;;;;;;58.00;45.50;;;;;7.18;67.81;101742.53;4999636;28;45490;-69
2022/12/02 06:21:02;;;;;;;;;56.50;42.25;;;;;5.94;67.34;101533.69;4999338;28;45391;-75
2022/12/02 06:23:31;;;;;;;;;53.25;41.75;;;;;7.10;67.54;101732.44;5014106;28;46951;-70
2022/12/02 06:25:58;;;;;;;;;58.25;46.75;;;;;7.24;67.62;101744.81;5019076;28;45468;-70
2022/12/02 06:28:30;;;;;;;;;60.25;45.00;;;;;7.22;67.74;101746.69;5019287;28;45478;-68
2022/12/02 06:30:59;;;;;;;;;62.00;49.50;;;;;6.85;68.21;101682.94;4998973;28;45564;-69
2022/12/02 06:33:31;;;;;;;;;58.25;45.75;;;;;7.12;68.24;101745.56;5007019;28;45990;-70
2022/12/02 06:36:00;;;;;;;;;55.67;43.00;;;;;6.07;68.09;101571.59;5018266;28;45432;-70
2022/12/02 06:38:33;;;;;;;;;64.25;47.75;;;;;7.12;68.40;101742.91;5019071;28;45475;-72
2022/12/02 06:41:01;;;;;;;;;62.50;48.00;;;;;6.32;67.86;101596.47;5004188;28;45451;-72
2022/12/02 06:43:29;;;;;;;;;53.25;41.50;;;;;7.10;68.12;101748.31;4998839;28;46130;-72
2022/12/02 06:45:55;;;;;;;;;64.00;48.00;;;;;7.13;68.38;101734.88;5014740;28;45512;-71
2022/12/02 06:48:27;;;;;;;;;62.00;46.50;;;;;7.20;68.50;101737.97;5001061;28;45596;-72
2022/12/02 06:50:55;;;;;;;;;55.25;39.25;;;;;7.03;68.51;101723.22;5019182;28;45463;-71
2022/12/02 06:53:40;;;;;;;;;57.00;45.75;;;;;7.06;68.58;101722.16;5001070;28;48453;-70
2022/12/02 06:56:15;;;;;;;;;62.75;48.00;;;;;6.32;68.13;101584.09;5011276;28;45521;-71
2022/12/02 06:58:54;;;;;;;;;59.00;46.75;;;;;6.75;68.83;101668.56;5017563;28;45578;-71
2022/12/02 07:01:29;;;;;;;;;62.25;49.00;;;;;7.06;69.34;101735.38;5017847;28;45376;-72
2022/12/02 07:04:05;;;;;;;;;58.75;44.00;;;;;7.04;68.95;101726.72;5010800;28;46484;-71
2022/12/02 07:06:41;;;;;;;;;56.00;45.00;;;;;6.77;69.54;101719.53;5017086;28;45362;-72
2022/12/02 07:09:21;;;;;;;;;56.25;46.25;;;;;5.68;70.01;101537.03;5018575;28;45488;-71
2022/12/02 07:11:49;;;;;;;;;59.00;45.75;;;;;6.49;69.85;101653.53;5018830;28;45487;-71
2022/12/02 07:14:37;;;;;;;;;60.25;45.25;;;;;6.91;70.58;101738.03;5017992;28;45888;-73
2022/12/02 07:17:22;;;;;;;;;64.50;49.75;;;;;6.13;70.02;101596.75;5008563;28;45519;-72
2022/12/02 07:19:53;;;;;;;;;56.75;44.00;;;;;6.91;69.79;101722.19;4998628;28;45627;-74
2022/12/02 07:22:22;;;;;;;;;66.25;47.75;;;;;6.83;70.14;101705.13;5006313;28;45634;-73
2022/12/02 07:24:59;;;;;;;;;63.00;47.00;;;;;6.68;69.70;101672.56;5013526;28;45851;-72
2022/12/02 07:27:28;;;;;;;;;58.25;48.25;;;;;6.85;70.00;101696.16;5000715;28;45372;-71
2022/12/02 07:29:55;;;;;;;;;63.50;48.75;;;;;6.89;69.95;101724.06;5019398;28;45569;-72
2022/12/02 07:32:20;;;;;;;;;58.50;44.25;;;;;7.04;70.03;101735.50;5018851;28;45581;-70
2022/12/02 07:34:46;;;;;;;;;62.25;47.50;;;;;7.01;70.28;101736.53;5017384;28;45390;-71
2022/12/02 07:37:12;;;;;;;;;56.50;44.75;;;;;7.09;70.02;101724.63;5016880;28;45460;-72
2022/12/02 07:39:37;;;;;;;;;59.25;46.75;;;;;7.06;70.53;101722.16;5018564;28;45479;-72
2022/12/02 07:42:02;;;;;;;;;62.50;47.75;;;;;6.45;70.86;101629.09;5019120;28;45285;-73
2022/12/02 07:44:28;;;;;;;;;63.75;51.00;;;;;6.94;70.60;101735.19;5013690;28;48521;-74
2022/12/02 07:46:53;;;;;;;;;57.50;47.00;;;;;6.92;70.77;101729.16;5016755;28;45342;-72
2022/12/02 07:49:18;;;;;;;;;56.33;45.33;;;;;6.56;70.89;101668.88;5018325;28;45167;-73
2022/12/02 07:51:44;;;;;;;;;53.00;41.75;;;;;6.97;70.69;101742.09;5012491;28;45385;-72
2022/12/02 07:54:09;;;;;;;;;61.25;46.25;;;;;5.14;71.49;101453.25;5014013;28;47402;-73
2022/12/02 07:56:35;;;;;;;;;60.75;47.25;;;;;5.87;72.20;101576.34;5020126;28;45737;-74
2022/12/02 07:59:01;;;;;;;;;63.00;47.50;;;;;6.04;71.40;101607.88;4994590;28;45240;-75
2022/12/02 08:01:27;;;;;;;;;65.50;49.25;;;;;5.31;72.04;101485.66;5000609;28;45502;-74
2022/12/02 08:03:53;;;;;;;;;54.50;41.00;;;;;6.51;72.29;101685.97;5001083;28;47102;-75
2022/12/02 08:06:18;;;;;;;;;59.50;47.25;;;;;6.40;72.44;101676.91;5006909;28;45435;-74
2022/12/02 08:08:44;;;;;;;;;43.00;39.00;;;;;6.72;72.36;101734.84;4981718;28;45322;-74
2022/12/02 08:11:10;;;;;;;;;64.75;47.25;;;;;6.57;73.10;101730.50;4999566;28;45238;-76
2022/12/02 08:13:35;;;;;;;;;70.25;53.00;;;;;5.82;73.16;101616.22;4979862;28;47195;-74
2022/12/02 08:16:00;;;;;;;;;65.25;48.25;;;;;6.56;73.35;101731.44;4998143;28;45298;-75
2022/12/02 08:18:26;;;;;;;;;63.50;48.00;;;;;6.65;73.00;101733.53;4997882;28;45257;-74
2022/12/02 08:20:51;;;;;;;;;63.50;47.75;;;;;6.33;72.63;101656.25;5011313;28;45385;-73
2022/12/02 08:23:17;;;;;;;;;65.00;49.50;;;;;6.28;72.28;101645.13;5009900;28;45643;-75
2022/12/02 08:25:42;;;;;;;;;58.00;46.75;;;;;6.83;72.50;101732.41;5000913;28;45269;-75
2022/12/02 08:28:08;;;;;;;;;75.25;53.25;;;;;6.56;72.34;101676.81;4999845;28;45287;-76
2022/12/02 08:30:34;;;;;;;;;59.75;49.00;;;;;5.85;71.63;101591.44;5017516;28;45324;-76
2022/12/02 08:32:59;;;;;;;;;66.00;50.00;;;;;6.70;72.37;101731.44;5015993;28;47378;-72
2022/12/02 08:35:24;;;;;;;;;63.25;46.00;;;;;6.53;72.11;101707.84;5017728;28;45238;-74
2022/12/02 08:37:50;;;;;;;;;64.00;47.75;;;;;6.83;71.85;101724.47;5016191;28;45997;-75
2022/12/02 08:40:15;;;;;;;;;70.00;53.00;;;;;6.68;72.25;101699.00;4993207;28;45315;-74
2022/12/02 08:42:41;;;;;;;;;63.25;48.25;;;;;6.91;71.59;101735.41;5006854;28;45827;-75
2022/12/02 08:45:07;;;;;;;;;67.75;51.50;;;;;7.03;70.51;101730.28;5013247;28;45302;-75
2022/12/02 08:47:33;;;;;;;;;62.25;48.75;;;;;7.06;71.00;101735.38;5012724;28;45266;-74
2022/12/02 08:49:58;;;;;;;;;63.25;49.50;;;;;6.87;70.69;101688.13;5014667;28;45471;-75
2022/12/02 08:52:24;;;;;;;;;64.33;48.33;;;;;7.24;70.48;101731.56;5011835;28;45691;-77
2022/12/02 08:54:49;;;;;;;;;59.25;48.00;;;;;6.77;69.83;101656.13;5016280;28;45535;-74
2022/12/02 08:57:15;;;;;;;;;68.75;50.75;;;;;7.10;69.83;101721.03;4999179;28;45561;-78
2022/12/02 08:59:40;;;;;;;;;64.75;48.00;;;;;6.24;70.43;101599.59;5013622;28;45575;-73
2022/12/02 09:02:06;;;;;;;;;63.00;49.75;;;;;6.91;70.17;101724.81;4991016;28;47208;-73
2022/12/02 09:04:32;;;;;;;;;62.25;49.00;;;;;6.91;71.24;101726.63;5005531;28;45612;-74
2022/12/02 09:06:57;;;;;;;;;64.50;50.00;;;;;5.83;70.88;101528.19;5014775;28;45314;-73
2022/12/02 09:09:22;;;;;;;;;63.75;47.75;;;;;7.08;70.86;101712.34;5016618;28;45483;-75
2022/12/02 09:11:48;;;;;;;;;71.25;50.25;;;;;6.56;70.29;101631.91;5011900;28;45959;-75
2022/12/02 09:14:13;;;;;;;;;64.50;49.25;;;;;7.13;70.19;101741.97;4995529;28;45677;-72
2022/12/02 09:16:39;;;;;;;;;68.00;48.00;;;;;7.05;70.45;101717.81;5017545;28;45483;-72
2022/12/02 09:19:04;;;;;;;;;63.25;48.50;;;;;6.35;70.18;101618.25;5008130;28;45565;-76
2022/12/02 09:21:29;;;;;;;;;63.00;49.75;;;;;6.97;70.47;101724.44;4999282;28;48078;-72
2022/12/02 09:23:55;;;;;;;;;68.00;52.00;;;;;7.10;70.47;101737.72;4983016;28;46057;-73
2022/12/02 09:26:20;;;;;;;;;63.50;50.50;;;;;6.64;70.77;101656.06;4997514;28;45343;-78
2022/12/02 09:28:46;;;;;;;;;65.00;50.50;;;;;6.85;70.33;101664.41;4997747;28;45555;-74
2022/12/02 09:31:11;;;;;;;;;67.75;52.75;;;;;6.06;70.09;101532.09;4983533;28;47105;-74
2022/12/02 09:33:37;;;;;;;;;71.00;51.00;;;;;6.82;70.23;101654.06;4980745;28;45673;-74
2022/12/02 09:36:03;;;;;;;;;64.00;49.25;;;;;7.19;70.18;101736.28;4997571;28;45362;-72
2022/12/02 09:38:30;;;;;;;;;69.00;51.75;;;;;6.96;70.21;101683.06;5017851;28;45502;-72
2022/12/02 09:40:59;;;;;;;;;71.00;52.00;;;;;7.22;70.29;101714.97;4997122;28;45870;-75
2022/12/02 09:43:26;;;;;;;;;64.75;49.00;;;;;7.13;69.88;101679.34;5009476;28;46447;-75
2022/12/02 09:45:52;;;;;;;;;71.50;54.00;;;;;7.22;69.29;101699.94;4991806;28;45657;-72
2022/12/02 09:48:18;;;;;;;;;68.50;51.50;;;;;7.34;68.97;101698.28;5008552;28;45733;-73
2022/12/02 09:50:43;;;;;;;;;69.50;50.00;;;;;6.20;69.25;101503.00;5008123;28;46227;-74
2022/12/02 09:53:13;;;;;;;;;68.25;53.75;;;;;7.40;69.10;101703.16;4998174;28;45527;-72
2022/12/02 09:55:38;;;;;;;;;68.75;53.50;;;;;7.29;69.02;101710.97;4978465;28;45389;-73
2022/12/02 09:58:16;;;;;;;;;76.25;56.00;;;;;7.20;68.98;101706.25;4996433;28;45451;-74
2022/12/02 10:00:42;;;;;;;;;73.00;53.50;;;;;6.37;68.81;101560.03;5010054;28;46548;-74
2022/12/02 10:03:09;;;;;;;;;68.75;50.75;;;;;6.29;68.92;101562.31;5016824;28;45291;-74
2022/12/02 10:05:35;;;;;;;;;61.25;48.75;;;;;6.63;69.43;101619.16;4998430;28;45692;-74
2022/12/02 10:08:02;;;;;;;;;67.75;50.75;;;;;7.24;69.33;101697.19;5004522;28;46003;-71
2022/12/02 10:10:41;;;;;;;;;67.75;50.25;;;;;7.23;69.56;101684.91;4988501;28;48499;-73
2022/12/02 10:13:13;;;;;;;;;68.25;52.00;;;;;7.07;68.74;101636.59;4997540;28;45275;-76
2022/12/02 10:15:38;;;;;;;;;66.00;51.00;;;;;7.16;68.75;101673.03;5010608;28;45372;-74
2022/12/02 10:18:23;;;;;;;;;62.50;50.25;;;;;7.06;68.49;101650.78;4999577;28;45582;-75
2022/12/02 10:20:49;;;;;;;;;69.25;51.50;;;;;7.22;68.55;101667.34;5000264;28;45654;-75
2022/12/02 10:23:22;;;;;;;;;68.75;49.75;;;;;6.79;68.71;101585.50;4999528;28;45482;-75
2022/12/02 10:25:53;;;;;;;;;66.00;49.25;;;;;7.42;68.75;101680.13;4981797;28;45455;-75
2022/12/02 10:28:27;;;;;;;;;70.50;50.75;;;;;6.89;68.32;101593.69;4996527;28;45456;-75
2022/12/02 10:31:18;;;;;;;;;74.00;54.50;;;;;7.35;68.02;101677.97;5017986;28;45672;-73
2022/12/02 10:33:51;;;;;;;;;65.75;48.75;;;;;7.40;68.39;101682.00;5018764;28;45191;-74
2022/12/02 10:36:33;;;;;;;;;67.75;51.75;;;;;7.38;67.53;101673.31;5018558;28;45584;-73
2022/12/02 10:39:29;;;;;;;;;66.00;49.50;;;;;7.21;68.58;101663.84;5021151;28;45317;-74
2022/12/02 10:42:03;;;;;;;;;68.75;51.00;;;;;7.35;68.41;101668.22;5009060;28;46037;-75
2022/12/02 10:44:30;;;;;;;;;67.75;50.50;;;;;7.40;68.33;101674.06;5012079;28;45841;-73
2022/12/02 10:47:16;;;;;;;;;53.75;42.50;;;;;7.36;68.19;101664.63;5017521;28;45344;-74
2022/12/02 10:49:47;;;;;;;;;69.50;52.75;;;;;7.33;68.17;101655.09;5016636;28;45447;-72
2022/12/02 10:52:14;;;;;;;;;68.50;51.25;;;;;7.38;68.09;101661.88;5017684;28;45731;-72
2022/12/02 10:54:45;;;;;;;;;69.00;53.50;;;;;7.44;68.17;101635.03;5003528;28;45429;-74
2022/12/02 10:57:21;;;;;;;;;60.50;49.50;;;;;7.17;67.62;101590.94;4999082;28;45267;-76
2022/12/02 10:59:47;;;;;;;;;71.00;53.50;;;;;7.28;67.70;101624.63;4998146;28;45381;-77
2022/12/02 11:02:20;;;;;;;;;69.50;50.50;;;;;7.35;68.33;101636.47;4997498;28;45750;-77
2022/12/02 11:04:46;;;;;;;;;64.75;51.00;;;;;6.86;67.48;101549.81;4998952;28;45592;-76
2022/12/02 11:07:16;;;;;;;;;69.25;52.75;;;;;6.87;68.19;101572.66;5004333;28;45525;-74
2022/12/02 11:09:50;;;;;;;;;76.50;58.00;;;;;7.38;67.82;101630.97;5000764;28;45516;-73
2022/12/02 11:12:55;;;;;;;;;61.25;47.75;;;;;7.06;67.88;101587.31;5019736;28;45488;-79
2022/12/02 11:15:33;;;;;;;;;71.75;52.00;;;;;7.31;68.32;101632.34;4999724;28;45392;-74
2022/12/02 11:17:58;;;;;;;;;63.50;52.25;;;;;7.06;68.30;101582.88;5000037;28;45542;-78
2022/12/02 11:20:38;;;;;;;;;68.75;51.75;;;;;6.73;68.19;101533.06;4997829;28;45324;-72
2022/12/02 11:23:18;;;;;;;;;75.25;57.50;;;;;7.07;68.42;101596.94;4998427;28;46323;-76
2022/12/02 11:25:46;;;;;;;;;67.75;51.25;;;;;7.27;68.24;101615.00;4980615;28;45707;-73